createdAt,value
2023-09-07T00:00:11.925Z,8.10
2023-09-07T00:01:30.167Z,8.10
2023-09-07T00:02:39.533Z,8.10
2023-09-07T00:03:43.469Z,9.00
2023-09-07T00:04:46.812Z,8.10
2023-09-07T00:05:49.722Z,8.10
2023-09-07T00:06:53.073Z,8.40
2023-09-07T00:07:57.039Z,7.70
2023-09-07T00:08:59.953Z,7.60
2023-09-07T00:10:04.273Z,7.90
2023-09-07T00:11:07.641Z,8.10
2023-09-07T00:12:10.515Z,8.50
2023-09-07T00:13:15.701Z,8.60
2023-09-07T00:14:18.737Z,9.40
2023-09-07T00:15:22.511Z,9.00
2023-09-07T00:16:25.569Z,9.80
2023-09-07T00:17:28.638Z,9.40
2023-09-07T00:18:32.348Z,9.10
2023-09-07T00:19:38.018Z,9.50
2023-09-07T00:20:41.831Z,9.00
2023-09-07T00:21:44.761Z,8.90
2023-09-07T00:22:47.623Z,9.00
2023-09-07T00:23:50.514Z,8.90
2023-09-07T00:24:53.547Z,9.00
2023-09-07T00:25:56.832Z,8.20
2023-09-07T00:26:59.770Z,8.30
2023-09-07T00:28:02.869Z,9.30
2023-09-07T00:29:07.478Z,8.80
2023-09-07T00:30:11.157Z,8.80
2023-09-07T00:31:14.257Z,8.90
2023-09-07T00:32:17.357Z,9.00
2023-09-07T00:33:20.323Z,9.60
2023-09-07T00:34:23.302Z,8.90
2023-09-07T00:35:27.017Z,9.20
2023-09-07T00:36:29.972Z,9.80
2023-09-07T00:37:33.701Z,9.50
2023-09-07T00:38:36.642Z,9.40
2023-09-07T00:39:39.595Z,8.90
2023-09-07T00:40:46.445Z,8.40
2023-09-07T00:41:49.348Z,8.90
2023-09-07T00:42:52.192Z,9.10
2023-09-07T00:43:55.166Z,8.40
2023-09-07T00:44:58.145Z,9.10
2023-09-07T00:46:01.179Z,9.50
2023-09-07T00:47:04.514Z,8.60
2023-09-07T00:48:08.363Z,9.50
2023-09-07T00:49:13.024Z,8.90
2023-09-07T00:50:17.609Z,9.00
2023-09-07T00:51:20.725Z,9.00
2023-09-07T00:52:24.558Z,8.80
2023-09-07T00:53:28.528Z,8.70
2023-09-07T00:54:31.654Z,9.30
2023-09-07T00:55:36.180Z,9.00
2023-09-07T00:56:39.212Z,9.20
2023-09-07T00:57:43.920Z,8.90
2023-09-07T00:58:47.311Z,9.60
2023-09-07T00:59:50.198Z,8.80
2023-09-07T01:00:53.149Z,9.00
2023-09-07T01:01:56.102Z,9.00
2023-09-07T01:03:00.005Z,8.70
2023-09-07T01:04:04.601Z,8.80
2023-09-07T01:05:08.154Z,8.70
2023-09-07T01:06:19.101Z,9.30
2023-09-07T01:07:26.419Z,10.00
2023-09-07T01:08:44.126Z,8.90
2023-09-07T01:09:52.546Z,9.20
2023-09-07T01:10:55.581Z,9.10
2023-09-07T01:11:58.795Z,8.20
2023-09-07T01:13:01.822Z,9.60
2023-09-07T01:14:05.392Z,9.00
2023-09-07T01:15:08.649Z,8.70
2023-09-07T01:16:12.803Z,8.70
2023-09-07T01:17:16.844Z,9.20
2023-09-07T01:19:27.003Z,9.10
2023-09-07T01:20:32.710Z,8.80
2023-09-07T01:21:37.202Z,9.30
2023-09-07T01:22:41.547Z,9.10
2023-09-07T01:23:45.957Z,8.70
2023-09-07T01:24:49.753Z,8.90
2023-09-07T01:25:56.223Z,8.60
2023-09-07T01:27:00.128Z,8.90
2023-09-07T01:28:03.218Z,9.40
2023-09-07T01:29:07.687Z,8.90
2023-09-07T01:30:12.501Z,8.80
2023-09-07T01:31:49.527Z,8.60
2023-09-07T01:32:52.796Z,8.40
2023-09-07T01:33:56.240Z,8.80
2023-09-07T01:35:00.628Z,8.90
2023-09-07T01:36:04.170Z,8.80
2023-09-07T01:37:07.317Z,8.30
2023-09-07T01:38:10.436Z,8.60
2023-09-07T01:39:13.368Z,9.10
2023-09-07T01:40:16.347Z,8.60
2023-09-07T01:41:19.317Z,8.60
2023-09-07T01:42:23.402Z,8.90
2023-09-07T01:43:26.377Z,8.70
2023-09-07T01:44:30.894Z,8.70
2023-09-07T01:45:33.878Z,8.80
2023-09-07T01:46:39.720Z,9.40
2023-09-07T01:47:43.295Z,9.20
2023-09-07T01:48:46.360Z,9.20
2023-09-07T01:49:52.161Z,9.70
2023-09-07T01:50:55.606Z,8.80
2023-09-07T01:51:58.724Z,9.00
2023-09-07T01:53:02.055Z,9.20
2023-09-07T01:54:06.385Z,8.90
2023-09-07T01:55:09.409Z,9.40
2023-09-07T01:56:12.539Z,8.80
2023-09-07T01:57:15.639Z,8.90
2023-09-07T01:58:18.762Z,8.60
2023-09-07T01:59:22.009Z,8.70
2023-09-07T02:00:25.054Z,9.20
2023-09-07T02:01:35.112Z,8.90
2023-09-07T02:02:38.053Z,8.30
2023-09-07T02:03:40.988Z,9.30
2023-09-07T02:04:47.055Z,9.50
2023-09-07T02:05:51.279Z,8.50
2023-09-07T02:06:54.254Z,8.70
2023-09-07T02:07:57.470Z,8.40
2023-09-07T02:09:01.099Z,8.20
2023-09-07T02:10:06.810Z,8.40
2023-09-07T02:11:09.895Z,9.60
2023-09-07T02:12:13.031Z,9.70
2023-09-07T02:13:16.047Z,11.10
2023-09-07T02:14:19.373Z,14.20
2023-09-07T02:15:22.275Z,9.90
2023-09-07T02:16:25.339Z,9.60
2023-09-07T02:17:28.717Z,8.80
2023-09-07T02:18:34.121Z,9.10
2023-09-07T02:19:38.021Z,8.50
2023-09-07T02:20:41.310Z,8.80
2023-09-07T02:21:47.321Z,8.90
2023-09-07T02:22:51.558Z,8.50
2023-09-07T02:23:56.923Z,8.90
2023-09-07T02:25:03.747Z,8.50
2023-09-07T02:26:06.922Z,8.40
2023-09-07T02:27:10.475Z,8.10
2023-09-07T02:28:14.170Z,8.80
2023-09-07T02:29:17.421Z,8.70
2023-09-07T02:30:20.683Z,8.90
2023-09-07T02:31:25.411Z,9.00
2023-09-07T02:32:28.967Z,8.70
2023-09-07T02:33:32.572Z,8.10
2023-09-07T02:34:37.211Z,8.50
2023-09-07T02:35:40.312Z,8.20
2023-09-07T02:36:43.484Z,9.70
2023-09-07T02:37:46.407Z,9.30
2023-09-07T02:38:49.344Z,10.00
2023-09-07T02:39:52.255Z,9.00
2023-09-07T02:40:56.782Z,8.00
2023-09-07T02:41:59.659Z,8.90
2023-09-07T02:43:02.538Z,8.20
2023-09-07T02:44:06.227Z,9.00
2023-09-07T02:45:12.737Z,8.40
2023-09-07T02:46:15.778Z,9.10
2023-09-07T02:47:18.836Z,8.60
2023-09-07T02:48:21.848Z,8.80
2023-09-07T02:49:24.936Z,9.00
2023-09-07T02:50:31.769Z,8.80
2023-09-07T02:51:34.709Z,8.40
2023-09-07T02:52:37.810Z,8.60
2023-09-07T02:53:41.004Z,8.80
2023-09-07T02:54:44.097Z,8.40
2023-09-07T02:55:47.238Z,9.00
2023-09-07T02:56:50.385Z,9.10
2023-09-07T02:57:53.501Z,8.80
2023-09-07T02:58:57.880Z,8.60
2023-09-07T03:00:00.931Z,9.20
2023-09-07T03:01:10.054Z,8.60
2023-09-07T03:02:13.615Z,8.20
2023-09-07T03:03:16.815Z,8.80
2023-09-07T03:04:20.586Z,9.10
2023-09-07T03:05:23.671Z,9.70
2023-09-07T03:06:26.976Z,8.60
2023-09-07T03:07:35.540Z,8.80
2023-09-07T03:08:38.685Z,9.20
2023-09-07T03:09:41.811Z,9.30
2023-09-07T03:10:45.331Z,9.70
2023-09-07T03:11:49.120Z,9.90
2023-09-07T03:12:53.892Z,9.60
2023-09-07T03:13:56.923Z,9.40
2023-09-07T03:15:00.115Z,10.00
2023-09-07T03:16:05.305Z,9.50
2023-09-07T03:17:08.526Z,8.90
2023-09-07T03:18:11.890Z,9.20
2023-09-07T03:19:15.719Z,9.30
2023-09-07T03:20:19.073Z,9.50
2023-09-07T03:21:30.277Z,8.50
2023-09-07T03:22:33.611Z,9.20
2023-09-07T03:23:37.070Z,8.70
2023-09-07T03:24:40.451Z,8.70
2023-09-07T03:25:44.178Z,9.40
2023-09-07T03:26:47.807Z,9.00
2023-09-07T03:27:50.847Z,9.80
2023-09-07T03:28:54.415Z,8.80
2023-09-07T03:29:57.584Z,8.80
2023-09-07T03:31:00.900Z,9.60
2023-09-07T03:32:04.492Z,9.00
2023-09-07T03:33:07.833Z,8.80
2023-09-07T03:34:11.703Z,9.00
2023-09-07T03:35:14.885Z,8.50
2023-09-07T03:36:17.902Z,9.20
2023-09-07T03:37:20.950Z,8.80
2023-09-07T03:38:24.763Z,9.20
2023-09-07T03:39:27.897Z,8.50
2023-09-07T03:40:31.487Z,9.60
2023-09-07T03:41:35.617Z,9.60
2023-09-07T03:42:38.758Z,9.20
2023-09-07T03:43:42.080Z,9.40
2023-09-07T03:44:45.919Z,10.20
2023-09-07T03:45:49.071Z,9.00
2023-09-07T03:46:52.382Z,9.70
2023-09-07T03:47:55.582Z,10.00
2023-09-07T03:48:58.528Z,9.50
2023-09-07T03:50:02.201Z,9.50
2023-09-07T03:51:07.657Z,9.80
2023-09-07T03:52:11.149Z,9.90
2023-09-07T03:53:14.310Z,9.00
2023-09-07T03:54:17.257Z,8.90
2023-09-07T03:55:23.006Z,8.90
2023-09-07T03:56:27.259Z,8.60
2023-09-07T03:57:30.700Z,8.00
2023-09-07T03:58:34.316Z,8.20
2023-09-07T03:59:37.669Z,9.70
2023-09-07T04:00:41.845Z,8.50
2023-09-07T04:01:45.457Z,8.30
2023-09-07T04:02:48.865Z,8.60
2023-09-07T04:03:52.181Z,8.20
2023-09-07T04:04:59.203Z,7.90
2023-09-07T04:06:02.687Z,9.20
2023-09-07T04:07:05.824Z,8.10
2023-09-07T04:08:08.948Z,8.70
2023-09-07T04:09:11.999Z,9.40
2023-09-07T04:10:15.113Z,8.40
2023-09-07T04:11:18.640Z,8.70
2023-09-07T04:12:21.688Z,8.20
2023-09-07T04:13:24.612Z,8.00
2023-09-07T04:14:29.568Z,9.10
2023-09-07T04:15:32.799Z,8.50
2023-09-07T04:16:36.087Z,8.80
2023-09-07T04:17:42.071Z,8.10
2023-09-07T04:18:45.721Z,8.70
2023-09-07T04:19:49.044Z,8.90
2023-09-07T04:20:52.138Z,8.90
2023-09-07T04:21:55.172Z,8.70
2023-09-07T04:22:58.132Z,8.30
2023-09-07T04:24:01.151Z,8.00
2023-09-07T04:25:04.454Z,8.10
2023-09-07T04:26:09.158Z,8.40
2023-09-07T04:27:12.589Z,7.60
2023-09-07T04:28:15.788Z,8.00
2023-09-07T04:29:18.808Z,8.20
2023-09-07T04:30:21.831Z,9.50
2023-09-07T04:31:28.566Z,11.40
2023-09-07T04:32:31.944Z,9.90
2023-09-07T04:33:35.451Z,10.20
2023-09-07T04:34:39.052Z,9.70
2023-09-07T04:35:42.550Z,10.20
2023-09-07T04:36:45.739Z,9.40
2023-09-07T04:37:49.084Z,9.70
2023-09-07T04:38:52.218Z,9.30
2023-09-07T04:39:55.381Z,9.80
2023-09-07T04:41:09.156Z,9.80
2023-09-07T04:42:12.418Z,10.20
2023-09-07T04:43:15.571Z,9.10
2023-09-07T04:44:22.507Z,10.40
2023-09-07T04:45:26.366Z,10.20
2023-09-07T04:46:30.058Z,10.00
2023-09-07T04:47:34.036Z,10.60
2023-09-07T04:48:37.467Z,10.80
2023-09-07T04:49:43.214Z,11.00
2023-09-07T04:50:49.573Z,11.10
2023-09-07T04:51:55.107Z,11.70
2023-09-07T04:52:58.536Z,11.20
2023-09-07T04:54:01.873Z,11.20
2023-09-07T04:55:05.620Z,10.80
2023-09-07T04:56:09.670Z,11.50
2023-09-07T04:57:16.913Z,12.40
2023-09-07T04:58:20.307Z,13.40
2023-09-07T04:59:23.668Z,14.80
2023-09-07T05:00:27.510Z,15.40
2023-09-07T05:01:30.736Z,15.00
2023-09-07T05:02:33.888Z,16.00
2023-09-07T05:03:38.053Z,16.80
2023-09-07T05:04:41.188Z,17.30
2023-09-07T05:05:45.429Z,18.00
2023-09-07T05:06:50.083Z,18.30
2023-09-07T05:07:52.988Z,16.70
2023-09-07T05:08:56.246Z,17.00
2023-09-07T05:09:59.486Z,17.00
2023-09-07T05:11:05.011Z,16.80
2023-09-07T05:12:08.198Z,16.80
2023-09-07T05:13:11.747Z,15.90
2023-09-07T05:14:15.215Z,17.00
2023-09-07T05:15:18.786Z,16.60
2023-09-07T05:16:22.018Z,16.30
2023-09-07T05:17:25.100Z,15.70
2023-09-07T05:18:28.587Z,15.60
2023-09-07T05:19:31.817Z,14.70
2023-09-07T05:20:35.005Z,14.00
2023-09-07T05:21:40.773Z,14.00
2023-09-07T05:22:43.972Z,13.50
2023-09-07T05:23:47.865Z,14.20
2023-09-07T05:24:51.078Z,14.20
2023-09-07T05:25:55.387Z,14.70
2023-09-07T05:26:59.903Z,15.20
2023-09-07T05:28:03.317Z,14.70
2023-09-07T05:29:06.377Z,14.30
2023-09-07T05:30:10.250Z,14.90
2023-09-07T05:31:13.766Z,14.00
2023-09-07T05:32:16.864Z,14.90
2023-09-07T05:33:20.212Z,15.50
2023-09-07T05:34:23.261Z,14.20
2023-09-07T05:35:28.783Z,14.50
2023-09-07T05:36:32.129Z,14.50
2023-09-07T05:37:35.079Z,13.60
2023-09-07T05:38:39.020Z,13.80
2023-09-07T05:39:42.718Z,13.70
2023-09-07T05:40:45.818Z,13.20
2023-09-07T05:41:50.995Z,15.00
2023-09-07T05:42:54.636Z,13.70
2023-09-07T05:43:57.878Z,13.30
2023-09-07T05:45:00.957Z,13.00
2023-09-07T05:46:04.296Z,14.00
2023-09-07T05:47:07.608Z,12.90
2023-09-07T05:48:10.826Z,12.80
2023-09-07T05:49:13.946Z,12.50
2023-09-07T05:50:16.955Z,13.10
2023-09-07T05:51:19.994Z,14.20
2023-09-07T05:52:23.327Z,11.50
2023-09-07T05:53:27.275Z,12.80
2023-09-07T05:54:30.473Z,12.80
2023-09-07T05:55:33.573Z,13.40
2023-09-07T05:56:36.923Z,14.10
2023-09-07T05:57:40.195Z,17.60
2023-09-07T05:58:43.031Z,16.60
2023-09-07T05:59:45.927Z,16.70
2023-09-07T06:00:49.121Z,16.70
2023-09-07T06:01:52.240Z,16.70
2023-09-07T06:02:55.457Z,17.60
2023-09-07T06:04:00.053Z,20.40
2023-09-07T06:05:03.679Z,20.30
2023-09-07T06:06:06.589Z,21.10
2023-09-07T06:07:09.637Z,19.60
2023-09-07T06:08:12.780Z,19.00
2023-09-07T06:09:15.788Z,19.30
2023-09-07T06:10:20.463Z,17.90
2023-09-07T06:11:24.179Z,16.80
2023-09-07T06:12:27.140Z,16.50
2023-09-07T06:13:30.386Z,15.60
2023-09-07T06:14:33.797Z,16.60
2023-09-07T06:15:37.040Z,16.10
2023-09-07T06:16:41.025Z,16.00
2023-09-07T06:17:44.242Z,14.30
2023-09-07T06:18:47.631Z,14.30
2023-09-07T06:19:50.722Z,14.00
2023-09-07T06:20:53.655Z,15.00
2023-09-07T06:21:56.636Z,13.10
2023-09-07T06:22:59.621Z,11.20
2023-09-07T06:24:02.662Z,11.50
2023-09-07T06:25:06.113Z,10.60
2023-09-07T06:26:09.071Z,10.50
2023-09-07T06:27:12.003Z,10.90
2023-09-07T06:28:14.936Z,11.40
2023-09-07T06:29:18.222Z,9.40
2023-09-07T06:30:21.254Z,9.50
2023-09-07T06:31:24.588Z,9.60
2023-09-07T06:32:27.680Z,8.10
2023-09-07T06:33:31.128Z,8.30
2023-09-07T06:34:34.433Z,9.00
2023-09-07T06:35:37.571Z,10.50
2023-09-07T06:36:47.973Z,10.00
2023-09-07T06:37:53.958Z,11.80
2023-09-07T06:39:00.124Z,11.20
2023-09-07T06:40:04.961Z,11.40
2023-09-07T06:41:08.924Z,9.50
2023-09-07T06:42:12.900Z,8.70
2023-09-07T06:43:23.181Z,9.10
2023-09-07T06:44:26.301Z,9.20
2023-09-07T06:45:29.860Z,9.20
2023-09-07T06:46:33.464Z,9.60
2023-09-07T06:47:36.553Z,9.60
2023-09-07T06:48:39.908Z,10.80
2023-09-07T06:49:42.910Z,13.20
2023-09-07T06:50:46.616Z,12.30
2023-09-07T06:51:49.961Z,11.90
2023-09-07T06:52:53.044Z,10.80
2023-09-07T06:53:58.133Z,10.10
2023-09-07T06:55:02.631Z,10.00
2023-09-07T06:56:07.854Z,11.60
2023-09-07T06:57:11.016Z,11.70
2023-09-07T06:58:14.065Z,12.30
2023-09-07T06:59:17.506Z,12.70
2023-09-07T07:00:21.261Z,14.20
2023-09-07T07:01:24.381Z,14.70
2023-09-07T07:02:27.428Z,13.80
2023-09-07T07:03:31.823Z,13.50
2023-09-07T07:04:36.478Z,13.30
2023-09-07T07:05:40.239Z,10.20
2023-09-07T07:06:43.314Z,10.70
2023-09-07T07:07:46.567Z,10.90
2023-09-07T07:08:49.449Z,9.90
2023-09-07T07:09:53.779Z,11.30
2023-09-07T07:10:57.328Z,11.40
2023-09-07T07:12:03.967Z,10.90
2023-09-07T07:13:07.214Z,11.70
2023-09-07T07:14:11.667Z,11.10
2023-09-07T07:15:14.927Z,11.30
2023-09-07T07:16:18.532Z,12.10
2023-09-07T07:17:22.756Z,11.60
2023-09-07T07:18:26.435Z,11.90
2023-09-07T07:19:29.603Z,12.10
2023-09-07T07:20:32.623Z,10.60
2023-09-07T07:21:35.789Z,10.00
2023-09-07T07:22:39.303Z,10.10
2023-09-07T07:23:42.531Z,11.20
2023-09-07T07:24:45.721Z,10.20
2023-09-07T07:25:48.943Z,10.50
2023-09-07T07:26:52.173Z,11.20
2023-09-07T07:27:55.046Z,11.30
2023-09-07T07:28:58.025Z,9.80
2023-09-07T07:30:01.161Z,10.00
2023-09-07T07:31:11.167Z,10.40
2023-09-07T07:32:16.132Z,10.40
2023-09-07T07:33:19.260Z,10.40
2023-09-07T07:34:22.384Z,10.10
2023-09-07T07:35:25.823Z,10.00
2023-09-07T07:36:30.270Z,11.30
2023-09-07T07:37:35.009Z,11.70
2023-09-07T07:38:40.446Z,11.50
2023-09-07T07:39:44.082Z,10.40
2023-09-07T07:40:48.169Z,11.30
2023-09-07T07:41:51.999Z,10.90
2023-09-07T07:42:54.910Z,9.80
2023-09-07T07:43:58.610Z,10.60
2023-09-07T07:45:01.568Z,10.70
2023-09-07T07:46:05.154Z,9.40
2023-09-07T07:47:09.266Z,9.30
2023-09-07T07:48:12.633Z,10.70
2023-09-07T07:49:17.764Z,12.20
2023-09-07T07:50:20.995Z,11.90
2023-09-07T07:51:24.856Z,12.50
2023-09-07T07:52:28.376Z,12.10
2023-09-07T07:53:32.528Z,10.20
2023-09-07T07:54:36.522Z,11.40
2023-09-07T07:55:41.630Z,10.60
2023-09-07T07:56:47.816Z,10.30
2023-09-07T07:57:50.790Z,11.00
2023-09-07T07:58:53.902Z,11.40
2023-09-07T07:59:57.398Z,11.90
2023-09-07T08:01:00.727Z,11.10
2023-09-07T08:02:07.315Z,10.40
2023-09-07T08:03:10.642Z,10.10
2023-09-07T08:04:14.661Z,10.40
2023-09-07T08:05:18.368Z,10.00
2023-09-07T08:06:21.376Z,10.30
2023-09-07T08:07:24.680Z,10.20
2023-09-07T08:08:27.747Z,11.30
2023-09-07T08:09:32.126Z,10.30
2023-09-07T08:10:38.577Z,10.80
2023-09-07T08:11:41.964Z,10.10
2023-09-07T08:12:45.763Z,9.90
2023-09-07T08:13:48.887Z,9.70
2023-09-07T08:14:51.958Z,11.10
2023-09-07T08:15:55.094Z,11.40
2023-09-07T08:16:58.952Z,12.10
2023-09-07T08:18:02.228Z,11.90
2023-09-07T08:19:05.377Z,11.20
2023-09-07T08:20:12.222Z,11.20
2023-09-07T08:21:15.737Z,12.00
2023-09-07T08:22:18.956Z,11.80
2023-09-07T08:23:24.495Z,11.20
2023-09-07T08:24:27.824Z,11.90
2023-09-07T08:25:30.793Z,12.70
2023-09-07T08:26:33.719Z,11.60
2023-09-07T08:27:36.998Z,12.00
2023-09-07T08:28:39.979Z,12.50
2023-09-07T08:29:43.164Z,10.40
2023-09-07T08:30:46.327Z,9.40
2023-09-07T08:31:51.560Z,7.90
2023-09-07T08:32:54.562Z,7.00
2023-09-07T08:33:57.554Z,7.20
2023-09-07T08:35:02.301Z,6.60
2023-09-07T08:36:06.552Z,6.40
2023-09-07T08:37:10.496Z,7.00
2023-09-07T08:38:14.385Z,7.00
2023-09-07T08:39:18.383Z,8.40
2023-09-07T08:40:22.211Z,7.60
2023-09-07T08:41:25.589Z,6.70
2023-09-07T08:42:29.586Z,6.60
2023-09-07T08:43:36.267Z,6.50
2023-09-07T08:44:43.406Z,6.40
2023-09-07T08:46:13.321Z,6.60
2023-09-07T08:47:17.779Z,6.10
2023-09-07T08:48:21.754Z,6.50
2023-09-07T08:49:25.038Z,6.10
2023-09-07T08:50:29.674Z,6.30
2023-09-07T08:51:37.474Z,6.40
2023-09-07T08:52:41.420Z,5.50
2023-09-07T08:53:47.490Z,5.50
2023-09-07T08:54:53.037Z,6.10
2023-09-07T08:55:56.332Z,6.10
2023-09-07T08:56:59.752Z,5.80
2023-09-07T08:58:02.677Z,6.10
2023-09-07T08:59:06.540Z,6.50
2023-09-07T09:00:15.822Z,5.70
2023-09-07T09:01:19.596Z,5.90
2023-09-07T09:02:22.875Z,5.70
2023-09-07T09:03:26.049Z,6.70
2023-09-07T09:04:29.551Z,5.80
2023-09-07T09:05:34.238Z,5.40
2023-09-07T09:06:37.180Z,5.60
2023-09-07T09:07:40.178Z,6.20
2023-09-07T09:08:51.153Z,6.10
2023-09-07T09:10:09.721Z,5.80
2023-09-07T09:11:12.876Z,6.50
2023-09-07T09:12:15.845Z,5.70
2023-09-07T09:13:28.934Z,6.10
2023-09-07T09:14:32.177Z,6.20
2023-09-07T09:15:35.100Z,6.30
2023-09-07T09:16:38.163Z,6.70
2023-09-07T09:17:41.584Z,7.00
2023-09-07T09:18:54.980Z,5.40
2023-09-07T09:19:58.054Z,6.00
2023-09-07T09:21:01.070Z,6.00
2023-09-07T09:22:05.081Z,5.80
2023-09-07T09:23:08.648Z,6.10
2023-09-07T09:24:12.481Z,6.00
2023-09-07T09:25:15.630Z,5.80
2023-09-07T09:26:19.243Z,6.40
2023-09-07T09:27:22.101Z,6.00
2023-09-07T09:28:27.641Z,5.30
2023-09-07T09:29:34.245Z,6.40
2023-09-07T09:30:38.467Z,5.50
2023-09-07T09:31:41.677Z,6.10
2023-09-07T09:32:45.110Z,6.40
2023-09-07T09:33:52.825Z,5.80
2023-09-07T09:34:55.873Z,6.00
2023-09-07T09:35:59.050Z,6.00
2023-09-07T09:37:04.770Z,6.00
2023-09-07T09:38:08.214Z,5.80
2023-09-07T09:39:11.296Z,6.00
2023-09-07T09:40:15.435Z,5.70
2023-09-07T09:41:18.977Z,6.20
2023-09-07T09:42:23.078Z,6.00
2023-09-07T09:43:27.210Z,6.00
2023-09-07T09:44:30.344Z,5.90
2023-09-07T09:45:34.451Z,6.20
2023-09-07T09:46:40.716Z,6.10
2023-09-07T09:47:43.989Z,6.60
2023-09-07T09:48:48.434Z,6.10
2023-09-07T09:49:52.230Z,6.50
2023-09-07T09:50:55.717Z,5.50
2023-09-07T09:52:01.239Z,6.00
2023-09-07T09:53:07.831Z,5.40
2023-09-07T09:54:11.407Z,5.70
2023-09-07T09:55:14.846Z,5.20
2023-09-07T09:56:20.752Z,5.70
2023-09-07T09:57:23.866Z,6.10
2023-09-07T09:58:27.321Z,5.50
2023-09-07T09:59:30.262Z,5.00
2023-09-07T10:00:39.173Z,5.20
2023-09-07T10:01:45.614Z,6.00
2023-09-07T10:02:55.868Z,5.30
2023-09-07T10:05:08.177Z,5.70
2023-09-07T10:06:12.620Z,5.60
2023-09-07T10:07:15.612Z,5.30
2023-09-07T10:08:19.924Z,5.40
2023-09-07T10:09:23.194Z,5.80
2023-09-07T10:10:26.182Z,5.50
2023-09-07T10:11:40.941Z,5.70
2023-09-07T10:12:45.422Z,5.60
2023-09-07T10:13:58.431Z,5.80
2023-09-07T10:15:01.483Z,5.50
2023-09-07T10:16:08.941Z,5.40
2023-09-07T10:17:23.230Z,5.00
2023-09-07T10:18:34.995Z,5.20
2023-09-07T10:19:39.524Z,5.60
2023-09-07T10:21:00.592Z,5.70
2023-09-07T10:22:04.594Z,6.00
2023-09-07T10:23:07.444Z,5.40
2023-09-07T10:24:10.429Z,5.50
2023-09-07T10:25:23.831Z,5.90
2023-09-07T10:26:26.846Z,5.60
2023-09-07T10:27:38.515Z,5.70
2023-09-07T10:28:41.845Z,5.90
2023-09-07T10:29:47.395Z,5.60
2023-09-07T10:31:01.760Z,5.70
2023-09-07T10:32:07.998Z,5.40
2023-09-07T10:33:23.869Z,5.50
2023-09-07T10:34:40.650Z,5.40
2023-09-07T10:35:44.601Z,5.90
2023-09-07T10:36:48.045Z,5.80
2023-09-07T10:37:50.912Z,5.10
2023-09-07T10:38:56.381Z,5.20
2023-09-07T10:39:59.722Z,5.10
2023-09-07T10:41:05.518Z,5.40
2023-09-07T10:42:08.580Z,5.40
2023-09-07T10:43:11.946Z,5.50
2023-09-07T10:44:15.145Z,5.20
2023-09-07T10:45:18.640Z,5.80
2023-09-07T10:46:23.246Z,5.60
2023-09-07T10:47:26.657Z,5.60
2023-09-07T10:48:31.023Z,5.60
2023-09-07T10:49:33.970Z,5.40
2023-09-07T10:50:47.133Z,6.20
2023-09-07T10:51:50.433Z,5.20
2023-09-07T10:52:55.141Z,5.60
2023-09-07T10:53:58.110Z,6.00
2023-09-07T10:55:01.810Z,5.40
2023-09-07T10:56:05.823Z,5.40
2023-09-07T10:57:18.314Z,5.60
2023-09-07T10:58:31.172Z,5.70
2023-09-07T10:59:34.399Z,5.30
2023-09-07T11:00:37.759Z,5.90
2023-09-07T11:01:40.874Z,5.40
2023-09-07T11:02:44.695Z,6.20
2023-09-07T11:03:48.262Z,6.50
2023-09-07T11:04:51.210Z,5.30
2023-09-07T11:06:02.603Z,6.90
2023-09-07T11:07:06.071Z,5.60
2023-09-07T11:08:09.517Z,5.10
2023-09-07T11:09:12.722Z,5.30
2023-09-07T11:10:15.906Z,5.00
2023-09-07T11:11:19.055Z,5.10
2023-09-07T11:12:22.537Z,5.30
2023-09-07T11:13:26.472Z,5.00
2023-09-07T11:14:31.413Z,5.70
2023-09-07T11:15:34.877Z,5.10
2023-09-07T11:16:38.049Z,5.20
2023-09-07T11:17:41.314Z,5.50
2023-09-07T11:18:45.980Z,5.40
2023-09-07T11:19:53.363Z,4.90
2023-09-07T11:20:57.712Z,5.30
2023-09-07T11:22:00.651Z,5.60
2023-09-07T11:23:05.639Z,5.40
2023-09-07T11:24:09.547Z,5.40
2023-09-07T11:25:12.598Z,5.50
2023-09-07T11:26:18.299Z,5.60
2023-09-07T11:27:22.650Z,5.30
2023-09-07T11:28:26.140Z,5.30
2023-09-07T11:29:32.690Z,5.30
2023-09-07T11:30:36.319Z,5.60
2023-09-07T11:31:39.329Z,5.50
2023-09-07T11:32:43.970Z,5.60
2023-09-07T11:33:48.033Z,5.00
2023-09-07T11:34:52.725Z,4.70
2023-09-07T11:35:56.187Z,5.60
2023-09-07T11:36:59.043Z,5.00
2023-09-07T11:38:08.027Z,5.70
2023-09-07T11:39:14.579Z,5.10
2023-09-07T11:40:17.906Z,4.50
2023-09-07T11:41:20.855Z,5.10
2023-09-07T11:42:23.984Z,4.50
2023-09-07T11:43:26.907Z,4.60
2023-09-07T11:44:29.880Z,4.30
2023-09-07T11:45:33.445Z,4.40
2023-09-07T11:46:37.624Z,4.20
2023-09-07T11:47:41.023Z,4.30
2023-09-07T11:48:44.085Z,4.70
2023-09-07T11:49:47.126Z,5.20
2023-09-07T11:50:50.008Z,4.40
2023-09-07T11:51:52.978Z,4.90
2023-09-07T11:52:56.179Z,4.20
2023-09-07T11:54:00.067Z,4.30
2023-09-07T11:55:04.492Z,3.80
2023-09-07T11:56:07.492Z,4.30
2023-09-07T11:57:10.453Z,4.20
2023-09-07T11:58:13.399Z,3.90
2023-09-07T11:59:18.478Z,4.00
2023-09-07T12:00:23.437Z,4.10
2023-09-07T12:01:27.601Z,4.00
2023-09-07T12:02:30.739Z,3.70
2023-09-07T12:03:34.567Z,4.20
2023-09-07T12:04:41.785Z,4.50
2023-09-07T12:05:45.553Z,3.90
2023-09-07T12:06:48.618Z,4.10
2023-09-07T12:07:51.603Z,4.00
2023-09-07T12:09:02.319Z,4.30
2023-09-07T12:10:06.042Z,3.40
2023-09-07T12:11:09.022Z,3.50
2023-09-07T12:12:12.196Z,3.50
2023-09-07T12:13:15.455Z,3.40
2023-09-07T12:14:18.413Z,3.60
2023-09-07T12:15:21.658Z,3.80
2023-09-07T12:16:27.246Z,3.30
2023-09-07T12:17:31.028Z,3.70
2023-09-07T12:18:34.116Z,3.10
2023-09-07T12:19:37.144Z,3.10
2023-09-07T12:20:40.139Z,3.30
2023-09-07T12:21:43.212Z,3.30
2023-09-07T12:22:46.117Z,3.50
2023-09-07T12:23:49.258Z,4.00
2023-09-07T12:25:05.840Z,3.40
2023-09-07T12:26:15.589Z,3.00
2023-09-07T12:27:19.529Z,3.40
2023-09-07T12:28:22.713Z,3.40
2023-09-07T12:29:25.902Z,3.60
2023-09-07T12:30:29.652Z,3.10
2023-09-07T12:31:32.638Z,3.50
2023-09-07T12:32:35.558Z,3.10
2023-09-07T12:33:38.631Z,3.30
2023-09-07T12:34:41.646Z,3.70
2023-09-07T12:35:44.821Z,3.50
2023-09-07T12:36:47.915Z,3.20
2023-09-07T12:37:51.235Z,3.20
2023-09-07T12:38:54.860Z,3.90
2023-09-07T12:39:58.094Z,2.90
2023-09-07T12:41:01.046Z,3.30
2023-09-07T12:42:04.497Z,2.70
2023-09-07T12:43:08.548Z,3.20
2023-09-07T12:44:11.538Z,2.80
2023-09-07T12:45:16.172Z,3.10
2023-09-07T12:46:19.292Z,3.40
2023-09-07T12:47:22.313Z,3.20
2023-09-07T12:48:25.241Z,3.10
2023-09-07T12:49:28.160Z,3.20
2023-09-07T12:50:38.441Z,3.10
2023-09-07T12:51:41.601Z,3.00
2023-09-07T12:52:44.738Z,3.30
2023-09-07T12:53:47.816Z,3.20
2023-09-07T12:54:50.758Z,3.40
2023-09-07T12:55:54.837Z,3.10
2023-09-07T12:56:57.806Z,3.10
2023-09-07T12:58:01.714Z,3.30
2023-09-07T12:59:04.793Z,3.50
2023-09-07T13:00:08.323Z,3.10
2023-09-07T13:01:12.002Z,2.90
2023-09-07T13:02:14.984Z,3.10
2023-09-07T13:03:18.550Z,3.30
2023-09-07T13:04:21.837Z,2.80
2023-09-07T13:05:24.971Z,3.20
2023-09-07T13:06:27.919Z,3.00
2023-09-07T13:07:30.911Z,2.90
2023-09-07T13:08:36.459Z,2.90
2023-09-07T13:09:39.869Z,2.60
2023-09-07T13:10:42.912Z,3.20
2023-09-07T13:11:46.042Z,3.50
2023-09-07T13:12:49.238Z,3.00
2023-09-07T13:13:53.322Z,3.20
2023-09-07T13:14:56.217Z,2.70
2023-09-07T13:16:00.013Z,3.20
2023-09-07T13:17:03.232Z,3.10
2023-09-07T13:18:06.316Z,2.60
2023-09-07T13:19:09.412Z,2.80
2023-09-07T13:20:13.665Z,2.90
2023-09-07T13:21:16.894Z,2.60
2023-09-07T13:22:19.988Z,2.60
2023-09-07T13:23:23.012Z,2.90
2023-09-07T13:24:26.050Z,3.00
2023-09-07T13:25:29.137Z,2.80
2023-09-07T13:26:32.092Z,3.10
2023-09-07T13:27:35.761Z,3.00
2023-09-07T13:28:38.896Z,2.90
2023-09-07T13:29:42.382Z,2.90
2023-09-07T13:30:45.438Z,3.00
2023-09-07T13:31:48.560Z,2.60
2023-09-07T13:32:51.898Z,3.50
2023-09-07T13:33:54.882Z,2.70
2023-09-07T13:35:04.193Z,3.00
2023-09-07T13:36:07.901Z,2.70
2023-09-07T13:37:10.787Z,2.50
2023-09-07T13:38:13.973Z,2.70
2023-09-07T13:39:17.276Z,2.40
2023-09-07T13:40:22.275Z,2.90
2023-09-07T13:41:25.370Z,3.10
2023-09-07T13:42:31.179Z,2.80
2023-09-07T13:43:34.996Z,2.80
2023-09-07T13:44:38.593Z,3.30
2023-09-07T13:45:42.252Z,2.40
2023-09-07T13:46:46.045Z,2.70
2023-09-07T13:47:49.347Z,2.50
2023-09-07T13:48:53.073Z,2.60
2023-09-07T13:49:56.868Z,2.70
2023-09-07T13:51:00.214Z,2.80
2023-09-07T13:52:04.240Z,2.50
2023-09-07T13:53:07.869Z,2.50
2023-09-07T13:54:11.125Z,2.70
2023-09-07T13:55:15.394Z,3.00
2023-09-07T13:56:21.783Z,2.90
2023-09-07T13:57:27.218Z,3.10
2023-09-07T13:58:30.396Z,2.90
2023-09-07T13:59:35.587Z,2.80
2023-09-07T14:00:39.827Z,2.70
2023-09-07T14:01:43.316Z,2.60
2023-09-07T14:02:46.574Z,2.30
2023-09-07T14:03:49.861Z,2.80
2023-09-07T14:04:55.755Z,2.90
2023-09-07T14:05:58.988Z,2.80
2023-09-07T14:07:01.941Z,3.00
2023-09-07T14:08:05.459Z,2.50
2023-09-07T14:09:08.412Z,2.80